createdAt,value
2023-02-13T00:00:02.435Z,100.00
2023-02-13T00:02:29.950Z,100.00
2023-02-13T00:04:57.429Z,100.00
2023-02-13T00:07:24.916Z,100.00
2023-02-13T00:09:52.379Z,100.00
2023-02-13T00:12:19.926Z,100.00
2023-02-13T00:14:47.409Z,100.00
2023-02-13T00:17:16.389Z,100.00
2023-02-13T00:19:43.954Z,100.00
2023-02-13T00:22:11.695Z,100.00
2023-02-13T00:24:39.240Z,100.00
2023-02-13T00:27:06.698Z,100.00
2023-02-13T00:29:34.187Z,100.00
2023-02-13T00:32:02.389Z,100.00
2023-02-13T00:34:31.323Z,100.00
2023-02-13T00:36:58.781Z,100.00
2023-02-13T00:39:26.408Z,100.00
2023-02-13T00:41:53.898Z,100.00
2023-02-13T00:44:21.413Z,100.00
2023-02-13T00:46:48.926Z,100.00
2023-02-13T00:49:16.418Z,100.00
2023-02-13T00:51:45.391Z,100.00
2023-02-13T00:54:12.882Z,100.00
2023-02-13T00:56:40.516Z,100.00
2023-02-13T00:59:08.589Z,100.00
2023-02-13T01:01:36.100Z,100.00
2023-02-13T01:04:04.013Z,100.00
2023-02-13T01:06:31.522Z,100.00
2023-02-13T01:09:00.384Z,100.00
2023-02-13T01:11:27.925Z,100.00
2023-02-13T01:13:55.401Z,100.00
2023-02-13T01:16:23.000Z,100.00
2023-02-13T01:18:50.547Z,100.00
2023-02-13T01:21:19.960Z,100.00
2023-02-13T01:23:47.971Z,100.00
2023-02-13T01:26:19.542Z,100.00
2023-02-13T01:28:47.288Z,100.00
2023-02-13T01:31:15.126Z,100.00
2023-02-13T01:33:42.698Z,100.00
2023-02-13T01:36:12.360Z,100.00
2023-02-13T01:38:40.031Z,100.00
2023-02-13T01:41:08.304Z,100.00
2023-02-13T01:43:50.059Z,100.00
2023-02-13T01:46:20.326Z,100.00
2023-02-13T01:48:50.488Z,100.00
2023-02-13T01:51:21.280Z,100.00
2023-02-13T01:53:53.542Z,100.00
2023-02-13T01:56:26.478Z,100.00
2023-02-13T01:58:59.221Z,100.00
2023-02-13T02:01:27.773Z,100.00
2023-02-13T02:03:59.634Z,100.00
2023-02-13T02:06:29.302Z,100.00
2023-02-13T02:09:01.687Z,100.00
2023-02-13T02:11:36.463Z,100.00
2023-02-13T02:14:05.505Z,100.00
2023-02-13T02:16:33.840Z,100.00
2023-02-13T02:19:03.190Z,100.00
2023-02-13T02:21:54.205Z,100.00
2023-02-13T02:24:55.363Z,100.00
2023-02-13T02:28:10.678Z,100.00
2023-02-13T02:31:32.360Z,100.00
2023-02-13T02:34:15.886Z,100.00
2023-02-13T02:36:59.817Z,100.00
2023-02-13T02:39:37.166Z,100.00
2023-02-13T02:42:16.594Z,100.00
2023-02-13T02:44:52.220Z,100.00
2023-02-13T02:47:42.717Z,100.00
2023-02-13T02:50:24.719Z,100.00
2023-02-13T02:53:04.240Z,100.00
2023-02-13T02:55:39.821Z,100.00
2023-02-13T02:58:32.493Z,100.00
2023-02-13T03:01:19.613Z,100.00
2023-02-13T03:04:06.173Z,100.00
2023-02-13T03:06:41.202Z,100.00
2023-02-13T03:09:31.429Z,100.00
2023-02-13T03:12:17.074Z,100.00
2023-02-13T03:14:45.208Z,100.00
2023-02-13T03:17:33.679Z,100.00
2023-02-13T03:20:30.847Z,100.00
2023-02-13T03:23:14.857Z,100.00
2023-02-13T03:26:21.666Z,100.00
2023-02-13T03:29:15.769Z,100.00
2023-02-13T03:31:53.889Z,100.00
2023-02-13T03:34:23.929Z,100.00
2023-02-13T03:37:17.769Z,100.00
2023-02-13T03:39:53.507Z,100.00
2023-02-13T03:42:28.064Z,100.00
2023-02-13T03:45:17.527Z,100.00
2023-02-13T03:47:46.361Z,100.00
2023-02-13T03:50:14.975Z,100.00
2023-02-13T03:52:49.348Z,100.00
2023-02-13T03:55:37.720Z,100.00
2023-02-13T03:58:27.279Z,100.00
2023-02-13T04:00:59.719Z,100.00
2023-02-13T04:03:32.733Z,100.00
2023-02-13T04:06:05.663Z,100.00
2023-02-13T04:08:33.306Z,100.00
2023-02-13T04:11:09.677Z,100.00
2023-02-13T04:13:43.734Z,100.00
2023-02-13T04:16:16.244Z,100.00
2023-02-13T04:18:45.478Z,100.00
2023-02-13T04:21:12.929Z,100.00
2023-02-13T04:23:40.398Z,100.00
2023-02-13T04:26:17.434Z,100.00
2023-02-13T04:28:44.932Z,100.00
2023-02-13T04:31:12.559Z,100.00
2023-02-13T04:33:40.129Z,100.00
2023-02-13T04:36:08.308Z,100.00
2023-02-13T04:38:35.753Z,100.00
2023-02-13T04:41:03.289Z,100.00
2023-02-13T04:43:32.056Z,100.00
2023-02-13T04:45:59.529Z,100.00
2023-02-13T04:48:27.166Z,100.00
2023-02-13T04:50:54.657Z,100.00
2023-02-13T04:53:22.130Z,100.00
2023-02-13T04:55:49.633Z,100.00
2023-02-13T04:58:17.093Z,100.00
2023-02-13T05:00:45.968Z,100.00
2023-02-13T05:03:14.511Z,100.00
2023-02-13T05:05:42.250Z,100.00
2023-02-13T05:08:10.116Z,100.00
2023-02-13T05:10:38.136Z,100.00
2023-02-13T05:13:05.670Z,100.00
2023-02-13T05:15:33.534Z,100.00
2023-02-13T05:18:02.345Z,100.00
2023-02-13T05:20:29.868Z,100.00
2023-02-13T05:23:14.764Z,100.00
2023-02-13T05:25:43.709Z,100.00
2023-02-13T05:28:31.381Z,100.00
2023-02-13T05:30:59.356Z,100.00
2023-02-13T05:33:28.496Z,100.00
2023-02-13T05:35:55.984Z,100.00
2023-02-13T05:38:23.457Z,100.00
2023-02-13T05:40:50.933Z,100.00
2023-02-13T05:43:18.469Z,100.00
2023-02-13T05:45:46.042Z,100.00
2023-02-13T05:48:13.550Z,100.00
2023-02-13T05:50:42.349Z,100.00
2023-02-13T05:53:09.856Z,100.00
2023-02-13T05:55:37.314Z,100.00
2023-02-13T05:58:04.793Z,100.00
2023-02-13T06:00:32.268Z,100.00
2023-02-13T06:02:59.773Z,100.00
2023-02-13T06:05:27.397Z,100.00
2023-02-13T06:07:56.211Z,100.00
2023-02-13T06:10:23.689Z,100.00
2023-02-13T06:12:51.171Z,100.00
2023-02-13T06:15:18.937Z,100.00
2023-02-13T06:17:46.434Z,100.00
2023-02-13T06:20:14.091Z,100.00
2023-02-13T06:22:41.549Z,100.00
2023-02-13T06:25:10.413Z,100.00
2023-02-13T06:27:37.898Z,100.00
2023-02-13T06:30:05.871Z,100.00
2023-02-13T06:32:33.346Z,100.00
2023-02-13T06:35:00.823Z,100.00
2023-02-13T06:37:28.530Z,100.00
2023-02-13T06:39:56.018Z,100.00
2023-02-13T06:42:24.843Z,100.00
2023-02-13T06:44:52.336Z,100.00
2023-02-13T06:47:19.797Z,100.00
2023-02-13T06:49:47.275Z,100.00
2023-02-13T06:52:14.758Z,100.00
2023-02-13T06:54:47.809Z,100.00
2023-02-13T06:57:16.049Z,100.00
2023-02-13T06:59:44.908Z,100.00
2023-02-13T07:02:13.369Z,100.00
2023-02-13T07:04:41.050Z,100.00
2023-02-13T07:07:08.526Z,100.00
2023-02-13T07:09:36.002Z,100.00
2023-02-13T07:12:04.660Z,100.00
2023-02-13T07:14:32.143Z,99.65
2023-02-13T07:17:01.020Z,100.00
2023-02-13T07:19:28.465Z,98.93
2023-02-13T07:21:55.910Z,98.94
2023-02-13T07:24:23.401Z,100.00
2023-02-13T07:26:50.890Z,100.00
2023-02-13T07:29:18.363Z,100.00
2023-02-13T07:31:45.843Z,100.00
2023-02-13T07:34:14.768Z,100.00
2023-02-13T07:36:42.200Z,100.00
2023-02-13T07:39:09.886Z,100.00
2023-02-13T07:41:37.365Z,100.00
2023-02-13T07:44:04.936Z,100.00
2023-02-13T07:46:32.392Z,100.00
2023-02-13T07:48:59.837Z,100.00
2023-02-13T07:51:29.103Z,100.00
2023-02-13T07:53:57.705Z,100.00
2023-02-13T07:56:25.318Z,100.00
2023-02-13T07:58:52.772Z,100.00
2023-02-13T08:01:20.665Z,100.00
2023-02-13T08:03:51.682Z,100.00
2023-02-13T08:06:20.221Z,100.00
2023-02-13T08:08:49.028Z,100.00
2023-02-13T08:11:42.876Z,100.00
2023-02-13T08:14:10.380Z,99.82
2023-02-13T08:16:37.873Z,97.35
2023-02-13T08:19:05.338Z,95.06
2023-02-13T08:21:32.930Z,95.96
2023-02-13T08:24:01.890Z,97.45
2023-02-13T08:26:31.892Z,94.42
2023-02-13T08:28:59.484Z,94.73
2023-02-13T08:31:27.393Z,93.24
2023-02-13T08:33:54.988Z,94.00
2023-02-13T08:36:22.440Z,91.37
2023-02-13T08:38:50.285Z,93.19
2023-02-13T08:41:20.868Z,96.43
2023-02-13T08:43:48.741Z,95.70
2023-02-13T08:46:16.350Z,90.82
2023-02-13T08:48:44.069Z,90.61
2023-02-13T08:51:13.704Z,91.38
2023-02-13T08:53:42.281Z,89.94
2023-02-13T08:56:10.572Z,89.34
2023-02-13T08:58:39.651Z,91.13
2023-02-13T09:01:08.728Z,93.34
2023-02-13T09:03:37.152Z,89.91
2023-02-13T09:06:05.147Z,88.78
2023-02-13T09:08:32.730Z,93.33
2023-02-13T09:11:02.331Z,92.90
2023-02-13T09:13:30.409Z,94.46
2023-02-13T09:16:01.475Z,94.05
2023-02-13T09:18:29.735Z,91.27
2023-02-13T09:21:01.309Z,90.31
2023-02-13T09:23:32.322Z,90.40
2023-02-13T09:26:01.626Z,89.23
2023-02-13T09:28:29.375Z,87.97
2023-02-13T09:30:57.030Z,86.79
2023-02-13T09:33:26.749Z,84.23
2023-02-13T09:35:54.193Z,82.01
2023-02-13T09:38:21.638Z,81.67
2023-02-13T09:40:52.444Z,79.75
2023-02-13T09:43:28.519Z,78.57
2023-02-13T09:45:59.913Z,79.72
2023-02-13T09:48:31.971Z,77.65
2023-02-13T09:51:00.376Z,77.53
2023-02-13T09:53:33.311Z,76.61
2023-02-13T09:56:10.087Z,75.17
2023-02-13T09:58:44.132Z,75.07
2023-02-13T10:01:21.096Z,75.74
2023-02-13T10:03:58.558Z,74.50
2023-02-13T10:06:31.810Z,72.42
2023-02-13T10:09:08.972Z,69.05
2023-02-13T10:11:54.418Z,67.60
2023-02-13T10:14:28.092Z,66.72
2023-02-13T10:17:00.859Z,66.70
2023-02-13T10:19:36.864Z,67.78
2023-02-13T10:22:08.529Z,67.26
2023-02-13T10:24:41.038Z,65.46
2023-02-13T10:27:20.817Z,65.88
2023-02-13T10:30:09.381Z,65.62
2023-02-13T10:32:43.956Z,66.17
2023-02-13T10:35:21.731Z,65.85
2023-02-13T10:37:51.982Z,64.93
2023-02-13T10:40:20.571Z,64.96
2023-02-13T10:42:57.519Z,65.06
2023-02-13T10:45:40.230Z,65.58
2023-02-13T10:48:20.605Z,66.02
2023-02-13T10:51:01.710Z,65.79
2023-02-13T10:53:44.269Z,65.57
2023-02-13T10:56:23.397Z,64.96
2023-02-13T10:59:05.815Z,64.37
2023-02-13T11:01:40.655Z,63.20
2023-02-13T11:04:10.702Z,63.68
2023-02-13T11:06:44.069Z,63.40
2023-02-13T11:09:13.343Z,62.70
2023-02-13T11:11:43.262Z,61.75
2023-02-13T11:14:16.247Z,62.57
2023-02-13T11:16:55.133Z,63.72
2023-02-13T11:19:27.733Z,64.03
2023-02-13T11:21:59.978Z,66.99
2023-02-13T11:24:29.441Z,66.67
2023-02-13T11:27:01.726Z,66.73
2023-02-13T11:29:31.441Z,66.68
2023-02-13T11:32:05.965Z,67.33
2023-02-13T11:34:35.128Z,65.93
2023-02-13T11:37:17.832Z,66.62
2023-02-13T11:39:46.876Z,66.82
2023-02-13T11:42:16.456Z,66.87
2023-02-13T11:44:50.285Z,66.51
2023-02-13T11:47:18.041Z,66.36
2023-02-13T11:49:48.077Z,66.75
2023-02-13T11:52:28.615Z,65.63
2023-02-13T11:54:58.852Z,65.48
2023-02-13T11:57:31.317Z,65.98
2023-02-13T12:00:00.150Z,66.22
2023-02-13T12:02:29.423Z,63.64
2023-02-13T12:05:16.337Z,63.62
2023-02-13T12:07:46.019Z,63.66
2023-02-13T12:10:22.217Z,62.57
2023-02-13T12:12:55.642Z,63.32
2023-02-13T12:15:25.556Z,63.14
2023-02-13T12:18:03.822Z,64.12
2023-02-13T12:20:41.051Z,62.84
2023-02-13T12:23:19.616Z,61.88
2023-02-13T12:26:00.138Z,67.75
2023-02-13T12:28:42.603Z,67.81
2023-02-13T12:31:35.586Z,67.91
2023-02-13T12:34:24.829Z,67.66
2023-02-13T12:37:04.624Z,65.54
2023-02-13T12:39:36.184Z,67.01
2023-02-13T12:42:20.812Z,65.66
2023-02-13T12:45:09.652Z,66.00
2023-02-13T12:47:46.343Z,66.90
2023-02-13T12:50:38.437Z,67.12
2023-02-13T12:53:21.139Z,64.12
2023-02-13T12:56:05.777Z,66.96
2023-02-13T12:58:46.568Z,64.85
2023-02-13T13:01:26.972Z,58.86
2023-02-13T13:04:09.370Z,57.23
2023-02-13T13:06:54.908Z,61.71
2023-02-13T13:09:58.280Z,62.42
2023-02-13T13:12:43.730Z,60.41
2023-02-13T13:15:19.900Z,62.30
2023-02-13T13:17:58.935Z,61.48
2023-02-13T13:20:44.268Z,61.92
2023-02-13T13:23:17.714Z,61.45
2023-02-13T13:25:51.983Z,60.58
2023-02-13T13:28:24.566Z,60.27
2023-02-13T13:30:54.037Z,60.47
2023-02-13T13:33:23.273Z,60.41
2023-02-13T13:35:59.686Z,63.36
2023-02-13T13:38:51.673Z,64.03
2023-02-13T13:41:29.493Z,62.28
2023-02-13T13:44:20.849Z,63.96
2023-02-13T13:46:56.680Z,64.42
2023-02-13T13:49:33.153Z,63.53
2023-02-13T13:52:12.545Z,64.59
2023-02-13T13:54:40.034Z,64.87
2023-02-13T13:57:09.268Z,65.08
2023-02-13T13:59:59.923Z,65.46
2023-02-13T14:02:38.517Z,67.90
2023-02-13T14:05:19.589Z,66.57
2023-02-13T14:07:48.646Z,61.95
2023-02-13T14:11:03.202Z,60.67
2023-02-13T14:13:34.064Z,59.05
2023-02-13T14:16:03.560Z,59.93
2023-02-13T14:18:32.238Z,59.29
2023-02-13T14:21:01.923Z,59.71
2023-02-13T14:23:34.597Z,59.27
2023-02-13T14:26:13.855Z,57.63
2023-02-13T14:28:43.307Z,57.15
2023-02-13T14:31:23.297Z,56.61
2023-02-13T14:33:57.102Z,58.24
2023-02-13T14:36:32.192Z,59.68
2023-02-13T14:39:02.275Z,60.13
2023-02-13T14:41:44.338Z,62.54
2023-02-13T14:44:19.017Z,65.64
2023-02-13T14:46:49.269Z,64.22
2023-02-13T14:49:20.246Z,67.01
2023-02-13T14:51:51.134Z,71.52
2023-02-13T14:54:26.836Z,73.21
2023-02-13T14:57:00.378Z,72.44
2023-02-13T14:59:32.641Z,71.72
2023-02-13T15:02:10.104Z,68.82
2023-02-13T15:04:42.726Z,65.82
2023-02-13T15:07:16.602Z,67.96
2023-02-13T15:09:49.237Z,69.89
2023-02-13T15:12:31.305Z,74.06
2023-02-13T15:15:01.221Z,76.65
2023-02-13T15:17:32.765Z,74.02
2023-02-13T15:20:09.785Z,73.09
2023-02-13T15:22:39.429Z,70.20
2023-02-13T15:25:09.270Z,66.99
2023-02-13T15:27:41.614Z,66.14
2023-02-13T15:30:21.771Z,66.96
2023-02-13T15:32:56.840Z,67.10
2023-02-13T15:35:26.868Z,66.32
2023-02-13T15:37:54.833Z,68.56
2023-02-13T15:40:25.836Z,68.49
2023-02-13T15:42:54.177Z,69.85
2023-02-13T15:45:23.733Z,72.32
2023-02-13T15:47:51.975Z,75.42
2023-02-13T15:50:25.356Z,74.42
2023-02-13T15:52:53.955Z,74.38
2023-02-13T15:55:24.294Z,73.46
2023-02-13T15:57:53.046Z,71.19
2023-02-13T16:00:26.228Z,74.65
2023-02-13T16:02:55.864Z,76.53
2023-02-13T16:05:38.893Z,78.41
2023-02-13T16:08:28.231Z,79.01
2023-02-13T16:11:21.961Z,79.22
2023-02-13T16:14:07.135Z,77.45
2023-02-13T16:16:37.349Z,80.79
2023-02-13T16:19:05.241Z,81.82
2023-02-13T16:21:35.846Z,83.31
2023-02-13T16:24:07.492Z,87.73
2023-02-13T16:26:36.326Z,84.78
2023-02-13T16:29:03.935Z,83.06
2023-02-13T16:31:31.515Z,85.34
2023-02-13T16:33:58.989Z,81.52
2023-02-13T16:36:29.820Z,83.88
2023-02-13T16:38:58.617Z,79.37
2023-02-13T16:41:34.054Z,78.95
2023-02-13T16:44:02.359Z,77.27
2023-02-13T16:46:37.248Z,82.45
2023-02-13T16:49:17.229Z,83.35
2023-02-13T16:51:47.760Z,84.60
2023-02-13T16:54:24.016Z,82.97
2023-02-13T16:56:53.620Z,80.30
2023-02-13T16:59:28.893Z,82.20
2023-02-13T17:02:15.431Z,81.72
2023-02-13T17:04:48.002Z,80.40
2023-02-13T17:07:18.769Z,80.39
2023-02-13T17:09:53.658Z,79.98
2023-02-13T17:12:21.615Z,79.43
2023-02-13T17:14:49.118Z,79.27
2023-02-13T17:17:18.922Z,80.33
2023-02-13T17:19:47.006Z,82.85
2023-02-13T17:22:23.442Z,80.81
2023-02-13T17:24:52.343Z,79.99
2023-02-13T17:27:22.425Z,83.31
2023-02-13T17:29:50.239Z,86.82
2023-02-13T17:32:20.250Z,86.25
2023-02-13T17:34:47.756Z,85.22
2023-02-13T17:37:19.376Z,84.30
2023-02-13T17:39:47.935Z,85.47
2023-02-13T17:42:21.010Z,87.86
2023-02-13T17:44:48.498Z,85.98
2023-02-13T17:47:15.981Z,84.55
2023-02-13T17:49:43.485Z,87.28
2023-02-13T17:52:16.688Z,93.02
2023-02-13T17:54:45.189Z,99.16
2023-02-13T17:57:13.413Z,92.64
2023-02-13T17:59:42.649Z,90.23
2023-02-13T18:02:19.195Z,87.36
2023-02-13T18:04:47.285Z,84.72
2023-02-13T18:07:16.653Z,83.47
2023-02-13T18:09:44.197Z,87.44
2023-02-13T18:12:14.819Z,92.69
2023-02-13T18:14:43.821Z,90.55
2023-02-13T18:17:11.767Z,89.26
2023-02-13T18:19:39.996Z,91.52
2023-02-13T18:22:08.761Z,88.62
2023-02-13T18:24:37.724Z,88.28
2023-02-13T18:27:07.333Z,92.27
2023-02-13T18:29:36.171Z,94.23
2023-02-13T18:32:08.091Z,94.76
2023-02-13T18:34:37.766Z,93.05
2023-02-13T18:37:06.952Z,92.91
2023-02-13T18:39:34.651Z,90.61
2023-02-13T18:42:02.493Z,89.07
2023-02-13T18:44:29.977Z,91.33
2023-02-13T18:46:57.766Z,91.89
2023-02-13T18:49:26.952Z,91.91
2023-02-13T18:51:54.478Z,89.10
2023-02-13T18:54:22.164Z,87.78
2023-02-13T18:56:49.966Z,87.63
2023-02-13T18:59:18.485Z,94.10
2023-02-13T19:01:46.289Z,97.37
2023-02-13T19:04:13.896Z,92.99
2023-02-13T19:06:44.016Z,92.65
2023-02-13T19:09:11.996Z,98.83
2023-02-13T19:11:40.752Z,95.50
2023-02-13T19:14:08.585Z,92.84
2023-02-13T19:16:36.795Z,92.45
2023-02-13T19:19:06.188Z,94.86
2023-02-13T19:21:36.166Z,91.94
2023-02-13T19:24:07.673Z,94.52
2023-02-13T19:26:35.697Z,95.17
2023-02-13T19:29:03.238Z,92.97
2023-02-13T19:31:32.629Z,96.27
2023-02-13T19:34:01.348Z,94.90
2023-02-13T19:36:29.917Z,100.00
2023-02-13T19:38:59.544Z,100.00
2023-02-13T19:41:29.020Z,100.00
2023-02-13T19:43:57.193Z,100.00
2023-02-13T19:46:27.727Z,100.00
2023-02-13T19:48:55.413Z,100.00
2023-02-13T19:51:25.118Z,100.00
2023-02-13T19:53:56.570Z,100.00
2023-02-13T19:56:24.439Z,100.00
2023-02-13T19:58:53.259Z,100.00
2023-02-13T20:01:22.610Z,100.00
2023-02-13T20:03:50.207Z,100.00
2023-02-13T20:06:19.832Z,100.00
2023-02-13T20:08:47.733Z,100.00
2023-02-13T20:11:17.036Z,100.00
2023-02-13T20:13:44.789Z,100.00
2023-02-13T20:16:16.339Z,100.00
2023-02-13T20:18:44.126Z,100.00
2023-02-13T20:21:13.814Z,100.00
2023-02-13T20:23:41.992Z,100.00
2023-02-13T20:26:13.658Z,100.00
2023-02-13T20:28:42.471Z,98.08
2023-02-13T20:31:11.646Z,95.47
2023-02-13T20:33:41.183Z,93.42
2023-02-13T20:36:10.360Z,91.82
2023-02-13T20:38:37.872Z,91.54
2023-02-13T20:41:09.567Z,93.15
2023-02-13T20:43:37.993Z,94.27
2023-02-13T20:46:05.930Z,100.00
2023-02-13T20:48:35.848Z,100.00
2023-02-13T20:51:06.898Z,100.00
2023-02-13T20:53:34.855Z,100.00
2023-02-13T20:56:04.743Z,100.00
2023-02-13T20:58:32.621Z,100.00
2023-02-13T21:01:01.007Z,100.00
2023-02-13T21:03:28.774Z,100.00
2023-02-13T21:05:56.299Z,100.00
2023-02-13T21:08:25.111Z,100.00
2023-02-13T21:10:52.575Z,100.00
2023-02-13T21:13:20.113Z,100.00
2023-02-13T21:15:50.487Z,100.00
2023-02-13T21:18:19.800Z,100.00
2023-02-13T21:20:49.805Z,100.00
2023-02-13T21:23:17.281Z,100.00
2023-02-13T21:25:46.135Z,100.00
2023-02-13T21:28:13.626Z,100.00
2023-02-13T21:30:41.152Z,100.00
2023-02-13T21:33:08.641Z,100.00
2023-02-13T21:35:36.190Z,100.00
2023-02-13T21:38:03.643Z,100.00
2023-02-13T21:40:31.131Z,100.00
2023-02-13T21:42:59.950Z,100.00
2023-02-13T21:45:27.519Z,100.00
2023-02-13T21:47:55.742Z,100.00
2023-02-13T21:50:23.601Z,100.00
2023-02-13T21:52:51.100Z,100.00
2023-02-13T21:55:18.757Z,100.00
2023-02-13T21:57:46.230Z,100.00
2023-02-13T22:00:16.575Z,100.00
2023-02-13T22:02:44.069Z,100.00
2023-02-13T22:05:11.584Z,100.00
2023-02-13T22:07:53.013Z,100.00
2023-02-13T22:10:20.477Z,100.00
2023-02-13T22:12:51.947Z,100.00
2023-02-13T22:15:20.871Z,100.00
2023-02-13T22:17:48.437Z,100.00
2023-02-13T22:20:16.085Z,100.00
2023-02-13T22:22:43.679Z,100.00
2023-02-13T22:25:11.391Z,100.00
2023-02-13T22:27:38.874Z,100.00
2023-02-13T22:30:08.931Z,100.00
2023-02-13T22:32:39.714Z,100.00
2023-02-13T22:35:09.447Z,100.00
2023-02-13T22:37:37.486Z,100.00
2023-02-13T22:40:06.530Z,100.00
2023-02-13T22:42:33.986Z,100.00
2023-02-13T22:45:01.459Z,100.00
2023-02-13T22:47:30.097Z,100.00
2023-02-13T22:49:58.903Z,100.00
2023-02-13T22:52:26.337Z,100.00
2023-02-13T22:54:53.791Z,100.00
2023-02-13T22:57:21.227Z,100.00
2023-02-13T22:59:48.686Z,100.00
2023-02-13T23:02:16.136Z,100.00
2023-02-13T23:04:43.714Z,100.00
2023-02-13T23:07:15.036Z,100.00
2023-02-13T23:09:42.480Z,100.00
2023-02-13T23:12:27.545Z,100.00
2023-02-13T23:14:56.665Z,100.00
2023-02-13T23:17:42.006Z,100.00
2023-02-13T23:20:10.814Z,100.00
2023-02-13T23:22:39.657Z,100.00
2023-02-13T23:25:07.892Z,100.00
2023-02-13T23:27:36.856Z,100.00
2023-02-13T23:30:05.921Z,100.00
2023-02-13T23:32:33.477Z,100.00
2023-02-13T23:35:01.099Z,98.34
2023-02-13T23:37:28.714Z,100.00
2023-02-13T23:39:57.546Z,100.00
2023-02-13T23:42:25.008Z,100.00
2023-02-13T23:44:52.478Z,100.00
2023-02-13T23:47:19.957Z,100.00
2023-02-13T23:49:47.438Z,100.00
2023-02-13T23:52:14.906Z,100.00
2023-02-13T23:54:42.385Z,100.00
2023-02-13T23:57:11.824Z,100.00
2023-02-13T23:59:39.332Z,100.00
